Terminal Aerodrome Forecast
Issued by NWS Lake Charles, LA

Home | Current Version | Previous Version | Text Only | Print | Product List | Glossary On
Versions: 1 2 3 4 5 6 7 8 9 10 11 12 13 14 15 16 17 18 19 20 21 22 23 24 25 26
616
FTUS44 KLCH 200541
TAFBPT
TAF
KBPT 200541Z 2006/2106 17003KT P6SM SCT022
      TEMPO 2006/2008 4SM BR SCT004 SCT040
     FM200800 20003KT 1SM BR BKN004
     FM201500 21005KT 4SM BR BKN007 BKN020
     FM201600 23008KT P6SM FEW100 SCT250
     FM210000 15006KT P6SM VCTS BKN007CB OVC025 PROB30 2100/2106 3SM
      TSRA OVC007CB=

USA.gov is the U.S. government's official web portal to all federal, state and local government web resources and services.